sensor_id;sensor_type;location;lat;lon;timestamp;temperature;humidity
10530;DHT22;5313;48.834;9.228;2023-07-13T00:01:59;21.20;99.90
10530;DHT22;5313;48.834;9.228;2023-07-13T00:04:25;21.10;99.90
10530;DHT22;5313;48.834;9.228;2023-07-13T00:06:51;21.10;99.90
10530;DHT22;5313;48.834;9.228;2023-07-13T00:09:18;21.10;99.90
10530;DHT22;5313;48.834;9.228;2023-07-13T00:11:45;21.00;99.90
10530;DHT22;5313;48.834;9.228;2023-07-13T00:14:13;21.00;99.90
10530;DHT22;5313;48.834;9.228;2023-07-13T00:16:40;20.90;99.90
10530;DHT22;5313;48.834;9.228;2023-07-13T00:19:09;20.90;99.90
10530;DHT22;5313;48.834;9.228;2023-07-13T00:21:34;20.80;99.90
10530;DHT22;5313;48.834;9.228;2023-07-13T00:24:00;20.80;99.90
10530;DHT22;5313;48.834;9.228;2023-07-13T00:26:26;20.90;99.90
10530;DHT22;5313;48.834;9.228;2023-07-13T00:28:52;20.80;99.90
10530;DHT22;5313;48.834;9.228;2023-07-13T00:31:18;20.70;99.90
10530;DHT22;5313;48.834;9.228;2023-07-13T00:33:43;20.70;99.90
10530;DHT22;5313;48.834;9.228;2023-07-13T00:36:10;20.80;99.90
10530;DHT22;5313;48.834;9.228;2023-07-13T00:38:36;20.90;99.90
10530;DHT22;5313;48.834;9.228;2023-07-13T00:41:03;20.90;99.90
10530;DHT22;5313;48.834;9.228;2023-07-13T00:43:30;20.80;99.90
10530;DHT22;5313;48.834;9.228;2023-07-13T00:48:33;20.60;99.90
10530;DHT22;5313;48.834;9.228;2023-07-13T00:51:00;20.80;99.90
10530;DHT22;5313;48.834;9.228;2023-07-13T00:53:27;20.80;99.90
10530;DHT22;5313;48.834;9.228;2023-07-13T00:55:55;20.70;99.90
10530;DHT22;5313;48.834;9.228;2023-07-13T00:58:22;20.50;99.90
10530;DHT22;5313;48.834;9.228;2023-07-13T01:00:49;20.70;99.90
10530;DHT22;5313;48.834;9.228;2023-07-13T01:03:16;20.90;99.90
10530;DHT22;5313;48.834;9.228;2023-07-13T01:05:42;20.90;99.90
10530;DHT22;5313;48.834;9.228;2023-07-13T01:08:07;20.80;99.90
10530;DHT22;5313;48.834;9.228;2023-07-13T01:10:34;21.00;99.90
10530;DHT22;5313;48.834;9.228;2023-07-13T01:13:05;20.80;99.90
10530;DHT22;5313;48.834;9.228;2023-07-13T01:17:59;20.70;99.90
10530;DHT22;5313;48.834;9.228;2023-07-13T01:20:24;20.50;99.90
10530;DHT22;5313;48.834;9.228;2023-07-13T01:22:50;20.60;99.90
10530;DHT22;5313;48.834;9.228;2023-07-13T01:25:16;20.50;99.90
10530;DHT22;5313;48.834;9.228;2023-07-13T01:27:41;20.40;99.90
10530;DHT22;5313;48.834;9.228;2023-07-13T01:30:07;20.30;99.90
10530;DHT22;5313;48.834;9.228;2023-07-13T01:32:33;20.20;99.90
10530;DHT22;5313;48.834;9.228;2023-07-13T01:34:59;20.10;99.90
10530;DHT22;5313;48.834;9.228;2023-07-13T01:37:26;20.00;99.90
10530;DHT22;5313;48.834;9.228;2023-07-13T01:39:52;19.90;99.90
10530;DHT22;5313;48.834;9.228;2023-07-13T01:42:18;19.90;99.90
10530;DHT22;5313;48.834;9.228;2023-07-13T01:44:43;19.80;99.90
10530;DHT22;5313;48.834;9.228;2023-07-13T01:47:10;19.60;99.90
10530;DHT22;5313;48.834;9.228;2023-07-13T01:49:36;19.90;99.90
10530;DHT22;5313;48.834;9.228;2023-07-13T01:52:03;20.10;99.90
10530;DHT22;5313;48.834;9.228;2023-07-13T01:54:28;20.30;99.90
10530;DHT22;5313;48.834;9.228;2023-07-13T01:56:54;20.30;99.90
10530;DHT22;5313;48.834;9.228;2023-07-13T01:59:19;20.30;99.90
10530;DHT22;5313;48.834;9.228;2023-07-13T02:01:45;20.50;99.90
10530;DHT22;5313;48.834;9.228;2023-07-13T02:04:10;20.10;99.90
10530;DHT22;5313;48.834;9.228;2023-07-13T02:06:36;19.90;99.90
10530;DHT22;5313;48.834;9.228;2023-07-13T02:09:01;19.80;99.90
10530;DHT22;5313;48.834;9.228;2023-07-13T02:11:27;19.60;99.90
10530;DHT22;5313;48.834;9.228;2023-07-13T02:14:01;20.00;99.90
10530;DHT22;5313;48.834;9.228;2023-07-13T02:16:30;19.90;99.90
10530;DHT22;5313;48.834;9.228;2023-07-13T02:18:56;20.40;99.90
10530;DHT22;5313;48.834;9.228;2023-07-13T02:21:22;20.80;99.90
10530;DHT22;5313;48.834;9.228;2023-07-13T02:23:49;21.00;99.90
10530;DHT22;5313;48.834;9.228;2023-07-13T02:26:15;20.80;99.90
10530;DHT22;5313;48.834;9.228;2023-07-13T02:28:41;20.80;99.90
10530;DHT22;5313;48.834;9.228;2023-07-13T02:31:10;20.60;99.90
10530;DHT22;5313;48.834;9.228;2023-07-13T02:33:36;20.50;99.90
10530;DHT22;5313;48.834;9.228;2023-07-13T02:36:01;20.50;99.90
10530;DHT22;5313;48.834;9.228;2023-07-13T02:38:27;20.70;99.90
10530;DHT22;5313;48.834;9.228;2023-07-13T02:40:53;20.70;99.90
10530;DHT22;5313;48.834;9.228;2023-07-13T02:43:19;20.70;99.90
10530;DHT22;5313;48.834;9.228;2023-07-13T02:45:45;20.70;99.90
10530;DHT22;5313;48.834;9.228;2023-07-13T02:48:13;20.70;99.90
10530;DHT22;5313;48.834;9.228;2023-07-13T02:50:38;20.80;99.90
10530;DHT22;5313;48.834;9.228;2023-07-13T02:53:04;20.80;99.90
10530;DHT22;5313;48.834;9.228;2023-07-13T02:55:29;21.20;99.90
10530;DHT22;5313;48.834;9.228;2023-07-13T02:57:55;21.10;99.90
10530;DHT22;5313;48.834;9.228;2023-07-13T03:00:21;20.90;99.90
10530;DHT22;5313;48.834;9.228;2023-07-13T03:02:46;20.70;99.90
10530;DHT22;5313;48.834;9.228;2023-07-13T03:05:12;20.40;99.90
10530;DHT22;5313;48.834;9.228;2023-07-13T03:07:38;20.20;99.90
10530;DHT22;5313;48.834;9.228;2023-07-13T03:10:04;20.20;99.90
10530;DHT22;5313;48.834;9.228;2023-07-13T03:12:29;19.50;99.90
10530;DHT22;5313;48.834;9.228;2023-07-13T03:14:55;19.50;99.90
10530;DHT22;5313;48.834;9.228;2023-07-13T03:17:20;19.40;99.90
10530;DHT22;5313;48.834;9.228;2023-07-13T03:19:46;19.20;99.90
10530;DHT22;5313;48.834;9.228;2023-07-13T03:22:16;20.10;99.90
10530;DHT22;5313;48.834;9.228;2023-07-13T03:24:41;20.40;99.90
10530;DHT22;5313;48.834;9.228;2023-07-13T03:27:07;20.20;99.90
10530;DHT22;5313;48.834;9.228;2023-07-13T03:29:33;20.10;99.90
10530;DHT22;5313;48.834;9.228;2023-07-13T03:31:58;20.20;99.90
10530;DHT22;5313;48.834;9.228;2023-07-13T03:34:24;20.50;99.90
10530;DHT22;5313;48.834;9.228;2023-07-13T03:36:50;20.40;99.90
10530;DHT22;5313;48.834;9.228;2023-07-13T03:39:15;20.10;99.90
10530;DHT22;5313;48.834;9.228;2023-07-13T03:41:41;20.00;99.90
10530;DHT22;5313;48.834;9.228;2023-07-13T03:44:07;20.70;99.90
10530;DHT22;5313;48.834;9.228;2023-07-13T03:46:32;20.90;99.90
10530;DHT22;5313;48.834;9.228;2023-07-13T03:48:59;21.00;99.90
10530;DHT22;5313;48.834;9.228;2023-07-13T03:51:25;20.20;99.90
10530;DHT22;5313;48.834;9.228;2023-07-13T03:53:50;20.50;99.90
10530;DHT22;5313;48.834;9.228;2023-07-13T03:56:18;20.60;99.90
10530;DHT22;5313;48.834;9.228;2023-07-13T03:58:46;21.00;99.90
10530;DHT22;5313;48.834;9.228;2023-07-13T04:01:13;20.90;99.90
10530;DHT22;5313;48.834;9.228;2023-07-13T04:03:39;20.60;99.90
10530;DHT22;5313;48.834;9.228;2023-07-13T04:06:07;20.20;99.90
10530;DHT22;5313;48.834;9.228;2023-07-13T04:08:34;20.40;99.90
10530;DHT22;5313;48.834;9.228;2023-07-13T04:11:01;20.50;99.90
10530;DHT22;5313;48.834;9.228;2023-07-13T04:13:27;20.20;99.90
10530;DHT22;5313;48.834;9.228;2023-07-13T04:15:53;20.30;99.90
10530;DHT22;5313;48.834;9.228;2023-07-13T04:18:19;20.30;99.90
10530;DHT22;5313;48.834;9.228;2023-07-13T04:20:49;20.70;99.90
10530;DHT22;5313;48.834;9.228;2023-07-13T04:23:15;20.90;99.90
10530;DHT22;5313;48.834;9.228;2023-07-13T04:25:48;21.10;99.90
10530;DHT22;5313;48.834;9.228;2023-07-13T04:28:15;21.30;99.90
10530;DHT22;5313;48.834;9.228;2023-07-13T04:30:41;21.10;99.90
10530;DHT22;5313;48.834;9.228;2023-07-13T04:33:06;21.20;99.90
10530;DHT22;5313;48.834;9.228;2023-07-13T04:35:33;21.30;99.90
10530;DHT22;5313;48.834;9.228;2023-07-13T04:37:58;20.80;99.90
10530;DHT22;5313;48.834;9.228;2023-07-13T04:40:24;20.70;99.90
10530;DHT22;5313;48.834;9.228;2023-07-13T04:42:49;20.60;99.90
10530;DHT22;5313;48.834;9.228;2023-07-13T04:45:15;20.40;99.90
10530;DHT22;5313;48.834;9.228;2023-07-13T04:47:41;20.50;99.90
10530;DHT22;5313;48.834;9.228;2023-07-13T04:50:08;20.40;99.90
10530;DHT22;5313;48.834;9.228;2023-07-13T04:52:34;20.60;99.90
10530;DHT22;5313;48.834;9.228;2023-07-13T04:55:00;20.70;99.90
10530;DHT22;5313;48.834;9.228;2023-07-13T04:57:26;20.40;99.90
10530;DHT22;5313;48.834;9.228;2023-07-13T04:59:52;20.30;99.90
10530;DHT22;5313;48.834;9.228;2023-07-13T05:02:18;20.20;99.90
10530;DHT22;5313;48.834;9.228;2023-07-13T05:04:46;20.20;99.90
10530;DHT22;5313;48.834;9.228;2023-07-13T05:07:12;20.30;99.90
10530;DHT22;5313;48.834;9.228;2023-07-13T05:09:38;20.40;99.90
10530;DHT22;5313;48.834;9.228;2023-07-13T05:12:06;20.60;99.90
10530;DHT22;5313;48.834;9.228;2023-07-13T05:14:32;20.70;99.90
10530;DHT22;5313;48.834;9.228;2023-07-13T05:16:57;20.60;99.90
10530;DHT22;5313;48.834;9.228;2023-07-13T05:19:23;20.50;99.90
10530;DHT22;5313;48.834;9.228;2023-07-13T05:21:48;20.40;99.90
10530;DHT22;5313;48.834;9.228;2023-07-13T05:24:14;20.20;99.90
10530;DHT22;5313;48.834;9.228;2023-07-13T05:26:39;20.10;99.90
10530;DHT22;5313;48.834;9.228;2023-07-13T05:29:05;20.00;99.90
10530;DHT22;5313;48.834;9.228;2023-07-13T05:31:30;19.90;99.90
10530;DHT22;5313;48.834;9.228;2023-07-13T05:33:56;19.80;99.90
10530;DHT22;5313;48.834;9.228;2023-07-13T05:36:21;19.80;99.90
10530;DHT22;5313;48.834;9.228;2023-07-13T05:38:46;19.90;99.90
10530;DHT22;5313;48.834;9.228;2023-07-13T05:41:12;20.50;99.90
10530;DHT22;5313;48.834;9.228;2023-07-13T05:43:37;20.70;99.90
10530;DHT22;5313;48.834;9.228;2023-07-13T05:46:03;20.30;99.90
10530;DHT22;5313;48.834;9.228;2023-07-13T05:48:28;20.10;99.90
10530;DHT22;5313;48.834;9.228;2023-07-13T05:50:54;20.00;99.90
10530;DHT22;5313;48.834;9.228;2023-07-13T05:53:19;19.80;99.90
10530;DHT22;5313;48.834;9.228;2023-07-13T05:55:46;19.70;99.90
10530;DHT22;5313;48.834;9.228;2023-07-13T05:58:17;19.60;99.90
10530;DHT22;5313;48.834;9.228;2023-07-13T06:00:42;19.60;99.90
10530;DHT22;5313;48.834;9.228;2023-07-13T06:03:08;19.60;99.90
10530;DHT22;5313;48.834;9.228;2023-07-13T06:05:35;19.70;99.90
10530;DHT22;5313;48.834;9.228;2023-07-13T06:08:02;19.60;99.90
10530;DHT22;5313;48.834;9.228;2023-07-13T06:10:28;19.70;99.90
10530;DHT22;5313;48.834;9.228;2023-07-13T06:12:53;19.90;99.90
10530;DHT22;5313;48.834;9.228;2023-07-13T06:15:19;20.00;99.90
10530;DHT22;5313;48.834;9.228;2023-07-13T06:17:44;20.10;99.90
10530;DHT22;5313;48.834;9.228;2023-07-13T06:20:10;20.20;99.90
10530;DHT22;5313;48.834;9.228;2023-07-13T06:22:36;20.20;99.90
10530;DHT22;5313;48.834;9.228;2023-07-13T06:25:01;20.40;99.90
10530;DHT22;5313;48.834;9.228;2023-07-13T06:27:27;20.40;99.90
10530;DHT22;5313;48.834;9.228;2023-07-13T06:29:52;20.30;99.90
10530;DHT22;5313;48.834;9.228;2023-07-13T06:32:18;20.40;99.90
10530;DHT22;5313;48.834;9.228;2023-07-13T06:34:43;20.50;99.90
10530;DHT22;5313;48.834;9.228;2023-07-13T06:37:09;20.40;99.90
10530;DHT22;5313;48.834;9.228;2023-07-13T06:39:35;20.30;99.90
10530;DHT22;5313;48.834;9.228;2023-07-13T06:42:00;20.20;99.90
10530;DHT22;5313;48.834;9.228;2023-07-13T06:44:26;20.30;99.90
10530;DHT22;5313;48.834;9.228;2023-07-13T06:46:51;20.40;99.90
10530;DHT22;5313;48.834;9.228;2023-07-13T06:49:17;20.60;99.90
10530;DHT22;5313;48.834;9.228;2023-07-13T06:51:42;20.80;99.90
10530;DHT22;5313;48.834;9.228;2023-07-13T06:54:08;20.90;99.90
10530;DHT22;5313;48.834;9.228;2023-07-13T06:56:33;21.00;99.90
10530;DHT22;5313;48.834;9.228;2023-07-13T06:58:59;21.00;99.90
10530;DHT22;5313;48.834;9.228;2023-07-13T07:01:25;20.80;99.90
10530;DHT22;5313;48.834;9.228;2023-07-13T07:03:51;20.80;99.90
10530;DHT22;5313;48.834;9.228;2023-07-13T07:06:18;20.80;99.90
10530;DHT22;5313;48.834;9.228;2023-07-13T07:08:44;20.90;99.90
10530;DHT22;5313;48.834;9.228;2023-07-13T07:11:14;20.90;99.90
10530;DHT22;5313;48.834;9.228;2023-07-13T07:13:40;21.10;99.90
10530;DHT22;5313;48.834;9.228;2023-07-13T07:16:06;21.30;99.90
10530;DHT22;5313;48.834;9.228;2023-07-13T07:18:32;21.40;99.90
10530;DHT22;5313;48.834;9.228;2023-07-13T07:20:57;21.50;99.90
10530;DHT22;5313;48.834;9.228;2023-07-13T07:23:23;21.60;99.90
10530;DHT22;5313;48.834;9.228;2023-07-13T07:25:48;21.60;99.90
10530;DHT22;5313;48.834;9.228;2023-07-13T07:28:16;21.60;99.90
10530;DHT22;5313;48.834;9.228;2023-07-13T07:30:45;21.70;99.90
10530;DHT22;5313;48.834;9.228;2023-07-13T07:33:11;21.80;99.90
10530;DHT22;5313;48.834;9.228;2023-07-13T07:35:36;21.80;99.90
10530;DHT22;5313;48.834;9.228;2023-07-13T07:38:02;21.90;99.90
10530;DHT22;5313;48.834;9.228;2023-07-13T07:40:28;22.10;99.90
10530;DHT22;5313;48.834;9.228;2023-07-13T07:42:54;21.10;99.20
10530;DHT22;5313;48.834;9.228;2023-07-13T07:45:21;22.00;99.90
10530;DHT22;5313;48.834;9.228;2023-07-13T07:47:47;22.00;99.90
10530;DHT22;5313;48.834;9.228;2023-07-13T07:50:13;22.00;99.90
10530;DHT22;5313;48.834;9.228;2023-07-13T07:52:38;22.20;99.90
10530;DHT22;5313;48.834;9.228;2023-07-13T07:55:06;22.30;98.60
10530;DHT22;5313;48.834;9.228;2023-07-13T07:57:32;22.40;96.80
10530;DHT22;5313;48.834;9.228;2023-07-13T07:59:57;22.40;97.20
10530;DHT22;5313;48.834;9.228;2023-07-13T08:02:24;22.50;97.40
10530;DHT22;5313;48.834;9.228;2023-07-13T08:04:50;22.50;97.00
10530;DHT22;5313;48.834;9.228;2023-07-13T08:07:16;22.50;96.40
10530;DHT22;5313;48.834;9.228;2023-07-13T08:09:41;22.40;95.40
10530;DHT22;5313;48.834;9.228;2023-07-13T08:12:07;22.50;95.10
10530;DHT22;5313;48.834;9.228;2023-07-13T08:14:33;22.30;96.10
10530;DHT22;5313;48.834;9.228;2023-07-13T08:16:58;22.50;93.70
10530;DHT22;5313;48.834;9.228;2023-07-13T08:19:24;22.70;93.50
10530;DHT22;5313;48.834;9.228;2023-07-13T08:21:49;22.60;93.90
10530;DHT22;5313;48.834;9.228;2023-07-13T08:24:15;22.70;94.00
10530;DHT22;5313;48.834;9.228;2023-07-13T08:26:44;22.60;94.30
10530;DHT22;5313;48.834;9.228;2023-07-13T08:29:09;22.50;94.00
10530;DHT22;5313;48.834;9.228;2023-07-13T08:31:35;22.60;92.70
10530;DHT22;5313;48.834;9.228;2023-07-13T08:34:00;22.70;93.50
10530;DHT22;5313;48.834;9.228;2023-07-13T08:36:26;22.80;91.80
10530;DHT22;5313;48.834;9.228;2023-07-13T08:38:53;22.80;90.10
10530;DHT22;5313;48.834;9.228;2023-07-13T08:41:18;22.70;90.60
10530;DHT22;5313;48.834;9.228;2023-07-13T08:43:56;22.80;91.90
10530;DHT22;5313;48.834;9.228;2023-07-13T08:46:38;22.80;92.30
10530;DHT22;5313;48.834;9.228;2023-07-13T08:49:19;23.00;92.80
10530;DHT22;5313;48.834;9.228;2023-07-13T08:51:57;23.10;91.60
10530;DHT22;5313;48.834;9.228;2023-07-13T08:54:32;22.80;91.50
10530;DHT22;5313;48.834;9.228;2023-07-13T08:57:02;22.80;91.90
10530;DHT22;5313;48.834;9.228;2023-07-13T08:59:31;23.10;90.70
10530;DHT22;5313;48.834;9.228;2023-07-13T09:04:36;22.90;91.20
10530;DHT22;5313;48.834;9.228;2023-07-13T09:12:36;23.40;90.50
10530;DHT22;5313;48.834;9.228;2023-07-13T09:15:04;23.40;89.30
10530;DHT22;5313;48.834;9.228;2023-07-13T09:17:37;23.60;88.70
10530;DHT22;5313;48.834;9.228;2023-07-13T09:20:34;23.80;89.80
10530;DHT22;5313;48.834;9.228;2023-07-13T09:23:03;23.80;90.00
10530;DHT22;5313;48.834;9.228;2023-07-13T09:25:32;24.10;89.50
10530;DHT22;5313;48.834;9.228;2023-07-13T09:28:14;24.30;86.20
10530;DHT22;5313;48.834;9.228;2023-07-13T09:33:20;24.10;83.10
10530;DHT22;5313;48.834;9.228;2023-07-13T09:35:46;23.60;84.50
10530;DHT22;5313;48.834;9.228;2023-07-13T09:38:14;23.60;85.40
10530;DHT22;5313;48.834;9.228;2023-07-13T09:41:04;23.80;85.20
10530;DHT22;5313;48.834;9.228;2023-07-13T09:43:36;24.00;84.60
10530;DHT22;5313;48.834;9.228;2023-07-13T09:46:02;24.10;87.80
10530;DHT22;5313;48.834;9.228;2023-07-13T09:48:34;24.30;84.80
10530;DHT22;5313;48.834;9.228;2023-07-13T09:51:07;24.50;86.40
10530;DHT22;5313;48.834;9.228;2023-07-13T09:53:41;24.70;81.40
10530;DHT22;5313;48.834;9.228;2023-07-13T09:56:19;24.60;81.90
10530;DHT22;5313;48.834;9.228;2023-07-13T09:58:45;24.60;79.00
10530;DHT22;5313;48.834;9.228;2023-07-13T10:01:10;24.50;82.10
10530;DHT22;5313;48.834;9.228;2023-07-13T10:03:36;24.80;81.30
10530;DHT22;5313;48.834;9.228;2023-07-13T10:06:19;25.30;79.00
10530;DHT22;5313;48.834;9.228;2023-07-13T10:08:46;25.20;75.30
10530;DHT22;5313;48.834;9.228;2023-07-13T10:11:26;25.40;76.90
10530;DHT22;5313;48.834;9.228;2023-07-13T10:13:57;25.80;76.40
10530;DHT22;5313;48.834;9.228;2023-07-13T10:16:25;26.00;78.10
10530;DHT22;5313;48.834;9.228;2023-07-13T10:18:56;26.20;76.30
10530;DHT22;5313;48.834;9.228;2023-07-13T10:21:36;26.50;72.20
10530;DHT22;5313;48.834;9.228;2023-07-13T10:24:12;26.50;72.40
10530;DHT22;5313;48.834;9.228;2023-07-13T10:26:47;26.40;71.40
10530;DHT22;5313;48.834;9.228;2023-07-13T10:29:14;26.10;71.10
10530;DHT22;5313;48.834;9.228;2023-07-13T10:31:41;26.30;72.80
10530;DHT22;5313;48.834;9.228;2023-07-13T10:34:10;26.20;74.30
10530;DHT22;5313;48.834;9.228;2023-07-13T10:36:45;26.10;72.30
10530;DHT22;5313;48.834;9.228;2023-07-13T10:39:27;25.90;72.60
10530;DHT22;5313;48.834;9.228;2023-07-13T10:42:03;26.00;73.30
10530;DHT22;5313;48.834;9.228;2023-07-13T10:44:31;25.90;71.50
10530;DHT22;5313;48.834;9.228;2023-07-13T10:46:59;25.60;72.20
10530;DHT22;5313;48.834;9.228;2023-07-13T10:49:30;25.20;72.10
10530;DHT22;5313;48.834;9.228;2023-07-13T10:51:56;25.30;74.30
10530;DHT22;5313;48.834;9.228;2023-07-13T10:54:33;25.80;73.50
10530;DHT22;5313;48.834;9.228;2023-07-13T10:57:18;26.30;71.20
10530;DHT22;5313;48.834;9.228;2023-07-13T11:02:28;26.20;72.50
10530;DHT22;5313;48.834;9.228;2023-07-13T11:04:55;25.90;72.20
10530;DHT22;5313;48.834;9.228;2023-07-13T11:07:30;26.00;74.40
10530;DHT22;5313;48.834;9.228;2023-07-13T11:09:59;25.70;72.70
10530;DHT22;5313;48.834;9.228;2023-07-13T11:17:48;25.80;73.30
10530;DHT22;5313;48.834;9.228;2023-07-13T11:25:27;25.70;70.40
10530;DHT22;5313;48.834;9.228;2023-07-13T11:30:44;26.40;70.50
10530;DHT22;5313;48.834;9.228;2023-07-13T11:33:21;26.70;69.60
10530;DHT22;5313;48.834;9.228;2023-07-13T11:38:38;26.20;69.60
10530;DHT22;5313;48.834;9.228;2023-07-13T11:41:23;27.30;67.80
10530;DHT22;5313;48.834;9.228;2023-07-13T11:43:52;27.90;62.70
10530;DHT22;5313;48.834;9.228;2023-07-13T11:46:22;27.60;62.20
10530;DHT22;5313;48.834;9.228;2023-07-13T11:48:48;26.40;63.80
10530;DHT22;5313;48.834;9.228;2023-07-13T11:51:29;26.70;65.50
10530;DHT22;5313;48.834;9.228;2023-07-13T11:54:00;27.10;64.80
10530;DHT22;5313;48.834;9.228;2023-07-13T11:56:26;27.10;63.90
10530;DHT22;5313;48.834;9.228;2023-07-13T11:58:55;27.50;62.60
10530;DHT22;5313;48.834;9.228;2023-07-13T12:01:25;28.10;64.60
10530;DHT22;5313;48.834;9.228;2023-07-13T12:03:53;28.50;60.00
10530;DHT22;5313;48.834;9.228;2023-07-13T12:06:32;28.50;59.40
10530;DHT22;5313;48.834;9.228;2023-07-13T12:09:03;27.30;59.90
10530;DHT22;5313;48.834;9.228;2023-07-13T12:11:30;27.40;61.80
10530;DHT22;5313;48.834;9.228;2023-07-13T12:13:55;28.20;59.30
10530;DHT22;5313;48.834;9.228;2023-07-13T12:16:29;27.70;60.60
10530;DHT22;5313;48.834;9.228;2023-07-13T12:18:56;26.90;60.30
10530;DHT22;5313;48.834;9.228;2023-07-13T12:21:28;26.40;61.90
10530;DHT22;5313;48.834;9.228;2023-07-13T12:23:55;26.50;62.50
10530;DHT22;5313;48.834;9.228;2023-07-13T12:26:20;26.60;62.10
10530;DHT22;5313;48.834;9.228;2023-07-13T12:28:52;26.60;62.10
10530;DHT22;5313;48.834;9.228;2023-07-13T12:31:36;26.50;63.30
10530;DHT22;5313;48.834;9.228;2023-07-13T12:36:41;27.30;62.60
10530;DHT22;5313;48.834;9.228;2023-07-13T12:39:16;27.30;59.50
10530;DHT22;5313;48.834;9.228;2023-07-13T12:41:44;27.50;59.70
10530;DHT22;5313;48.834;9.228;2023-07-13T12:44:16;28.20;57.90
10530;DHT22;5313;48.834;9.228;2023-07-13T12:47:03;28.50;58.40
10530;DHT22;5313;48.834;9.228;2023-07-13T12:49:31;29.00;57.30
10530;DHT22;5313;48.834;9.228;2023-07-13T12:52:01;29.40;55.00
10530;DHT22;5313;48.834;9.228;2023-07-13T12:54:28;29.70;53.80
10530;DHT22;5313;48.834;9.228;2023-07-13T12:56:55;28.90;53.00
10530;DHT22;5313;48.834;9.228;2023-07-13T12:59:24;28.20;55.30
10530;DHT22;5313;48.834;9.228;2023-07-13T13:01:51;28.40;53.70
10530;DHT22;5313;48.834;9.228;2023-07-13T13:04:17;29.30;54.30
10530;DHT22;5313;48.834;9.228;2023-07-13T13:06:47;29.00;53.10
10530;DHT22;5313;48.834;9.228;2023-07-13T13:09:14;29.80;53.80
10530;DHT22;5313;48.834;9.228;2023-07-13T13:11:40;30.00;52.90
10530;DHT22;5313;48.834;9.228;2023-07-13T13:14:07;30.10;51.70
10530;DHT22;5313;48.834;9.228;2023-07-13T13:16:47;30.60;52.00
10530;DHT22;5313;48.834;9.228;2023-07-13T13:19:19;30.20;50.00
10530;DHT22;5313;48.834;9.228;2023-07-13T13:21:47;29.80;50.90
10530;DHT22;5313;48.834;9.228;2023-07-13T13:24:14;28.70;50.80
10530;DHT22;5313;48.834;9.228;2023-07-13T13:26:40;28.60;52.60
10530;DHT22;5313;48.834;9.228;2023-07-13T13:29:15;28.50;52.60
10530;DHT22;5313;48.834;9.228;2023-07-13T13:31:42;29.30;51.70
10530;DHT22;5313;48.834;9.228;2023-07-13T13:34:10;29.40;52.00
10530;DHT22;5313;48.834;9.228;2023-07-13T13:36:36;30.10;51.80
10530;DHT22;5313;48.834;9.228;2023-07-13T13:39:02;30.50;48.90
10530;DHT22;5313;48.834;9.228;2023-07-13T13:41:27;30.50;49.00
10530;DHT22;5313;48.834;9.228;2023-07-13T13:43:53;30.10;49.40
10530;DHT22;5313;48.834;9.228;2023-07-13T13:46:22;30.00;50.40
10530;DHT22;5313;48.834;9.228;2023-07-13T13:48:50;29.50;49.40
10530;DHT22;5313;48.834;9.228;2023-07-13T13:51:21;29.00;49.70
10530;DHT22;5313;48.834;9.228;2023-07-13T13:53:47;30.80;53.20
10530;DHT22;5313;48.834;9.228;2023-07-13T13:56:14;28.50;51.80
10530;DHT22;5313;48.834;9.228;2023-07-13T13:58:41;29.10;50.90
10530;DHT22;5313;48.834;9.228;2023-07-13T14:01:21;28.70;51.80
10530;DHT22;5313;48.834;9.228;2023-07-13T14:03:47;27.90;52.20
10530;DHT22;5313;48.834;9.228;2023-07-13T14:06:19;28.70;52.30
10530;DHT22;5313;48.834;9.228;2023-07-13T14:08:44;29.00;51.50
10530;DHT22;5313;48.834;9.228;2023-07-13T14:11:15;28.50;51.40
10530;DHT22;5313;48.834;9.228;2023-07-13T14:13:52;28.50;50.40
10530;DHT22;5313;48.834;9.228;2023-07-13T14:16:20;29.00;50.40
10530;DHT22;5313;48.834;9.228;2023-07-13T14:18:47;28.40;50.70
10530;DHT22;5313;48.834;9.228;2023-07-13T14:21:22;27.50;52.20
10530;DHT22;5313;48.834;9.228;2023-07-13T14:23:49;27.30;52.70
10530;DHT22;5313;48.834;9.228;2023-07-13T14:26:21;27.00;53.20
10530;DHT22;5313;48.834;9.228;2023-07-13T14:28:48;27.10;53.20
10530;DHT22;5313;48.834;9.228;2023-07-13T14:31:16;27.40;52.80
10530;DHT22;5313;48.834;9.228;2023-07-13T14:33:42;28.60;52.20
10530;DHT22;5313;48.834;9.228;2023-07-13T14:38:46;29.80;50.00
10530;DHT22;5313;48.834;9.228;2023-07-13T14:41:11;29.20;48.90
10530;DHT22;5313;48.834;9.228;2023-07-13T14:43:37;29.70;49.00
10530;DHT22;5313;48.834;9.228;2023-07-13T14:46:02;30.10;49.60
10530;DHT22;5313;48.834;9.228;2023-07-13T14:48:29;30.40;47.80
10530;DHT22;5313;48.834;9.228;2023-07-13T14:50:57;30.10;48.70
10530;DHT22;5313;48.834;9.228;2023-07-13T14:53:25;30.20;48.30
10530;DHT22;5313;48.834;9.228;2023-07-13T14:55:52;29.80;48.40
10530;DHT22;5313;48.834;9.228;2023-07-13T14:58:17;29.90;49.50
10530;DHT22;5313;48.834;9.228;2023-07-13T15:00:43;29.30;49.70
10530;DHT22;5313;48.834;9.228;2023-07-13T15:03:19;29.80;49.30
10530;DHT22;5313;48.834;9.228;2023-07-13T15:05:47;30.20;49.30
10530;DHT22;5313;48.834;9.228;2023-07-13T15:08:13;29.60;48.60
10530;DHT22;5313;48.834;9.228;2023-07-13T15:10:40;29.40;49.80
10530;DHT22;5313;48.834;9.228;2023-07-13T15:15:44;29.80;48.50
10530;DHT22;5313;48.834;9.228;2023-07-13T15:18:12;29.60;48.90
10530;DHT22;5313;48.834;9.228;2023-07-13T15:20:38;28.90;50.90
10530;DHT22;5313;48.834;9.228;2023-07-13T15:23:04;29.20;50.20
10530;DHT22;5313;48.834;9.228;2023-07-13T15:25:32;29.20;50.10
10530;DHT22;5313;48.834;9.228;2023-07-13T15:27:59;29.50;50.20
10530;DHT22;5313;48.834;9.228;2023-07-13T15:30:36;29.70;49.60
10530;DHT22;5313;48.834;9.228;2023-07-13T15:33:12;29.70;48.80
10530;DHT22;5313;48.834;9.228;2023-07-13T15:35:38;28.00;50.80
10530;DHT22;5313;48.834;9.228;2023-07-13T15:38:15;28.40;51.30
10530;DHT22;5313;48.834;9.228;2023-07-13T15:40:41;28.30;50.80
10530;DHT22;5313;48.834;9.228;2023-07-13T15:43:11;28.10;50.40
10530;DHT22;5313;48.834;9.228;2023-07-13T15:45:37;27.70;51.90
10530;DHT22;5313;48.834;9.228;2023-07-13T15:48:16;27.30;52.10
10530;DHT22;5313;48.834;9.228;2023-07-13T15:50:45;26.80;53.60
10530;DHT22;5313;48.834;9.228;2023-07-13T15:53:13;26.70;54.70
10530;DHT22;5313;48.834;9.228;2023-07-13T15:55:40;26.70;54.50
10530;DHT22;5313;48.834;9.228;2023-07-13T15:58:11;26.70;54.40
10530;DHT22;5313;48.834;9.228;2023-07-13T16:00:36;26.70;54.30
10530;DHT22;5313;48.834;9.228;2023-07-13T16:03:02;26.80;54.20
10530;DHT22;5313;48.834;9.228;2023-07-13T16:05:27;27.10;54.80
10530;DHT22;5313;48.834;9.228;2023-07-13T16:07:53;27.30;54.60
10530;DHT22;5313;48.834;9.228;2023-07-13T16:10:34;26.90;54.10
10530;DHT22;5313;48.834;9.228;2023-07-13T16:13:01;27.20;54.60
10530;DHT22;5313;48.834;9.228;2023-07-13T16:15:26;27.30;54.90
10530;DHT22;5313;48.834;9.228;2023-07-13T16:17:52;27.20;54.10
10530;DHT22;5313;48.834;9.228;2023-07-13T16:20:18;27.40;53.70
10530;DHT22;5313;48.834;9.228;2023-07-13T16:22:47;26.90;54.00
10530;DHT22;5313;48.834;9.228;2023-07-13T16:25:20;26.70;54.90
10530;DHT22;5313;48.834;9.228;2023-07-13T16:27:47;27.00;54.60
10530;DHT22;5313;48.834;9.228;2023-07-13T16:32:39;27.20;54.00
10530;DHT22;5313;48.834;9.228;2023-07-13T16:35:05;27.00;53.10